Time;durP1;ratioP1;P1;durP2;ratioP2;P2;SDS_P1;SDS_P2;PMS_P1;PMS_P2;Temp;Humidity;BMP_temperature;BMP_pressure;BME280_temperature;BME280_humidity;BME280_pressure;Samples;Min_cycle;Max_cycle;Signal;HPM_P1;HPM_P2
2023/12/15 00:01:13;;;;;;;59.33;18.13;;;;;;;;;;5047006;28;20489;-69
2023/12/15 00:03:40;;;;;;;39.72;15.70;;;;;;;;;;5037004;28;20041;-70
2023/12/15 00:06:08;;;;;;;48.70;16.27;;;;;;;;;;5039440;28;20050;-70
2023/12/15 00:08:37;;;;;;;40.97;16.27;;;;;;;;;;5038204;28;20053;-69
2023/12/15 00:11:05;;;;;;;40.45;15.35;;;;;;;;;;5049235;28;20060;-70
2023/12/15 00:13:32;;;;;;;46.42;15.85;;;;;;;;;;5048287;28;20140;-70
2023/12/15 00:15:59;;;;;;;46.85;17.10;;;;;;;;;;5053057;28;20051;-69
2023/12/15 00:18:26;;;;;;;54.80;16.83;;;;;;;;;;5052426;28;20055;-70
2023/12/15 00:20:54;;;;;;;49.92;16.52;;;;;;;;;;5052619;28;20403;-69
2023/12/15 00:23:21;;;;;;;55.80;16.38;;;;;;;;;;5050279;28;20711;-69
2023/12/15 00:25:49;;;;;;;51.00;16.17;;;;;;;;;;5053506;28;20056;-70
2023/12/15 00:28:17;;;;;;;44.35;15.77;;;;;;;;;;5048827;28;20043;-70
2023/12/15 00:30:44;;;;;;;44.92;15.65;;;;;;;;;;5045284;28;20057;-70
2023/12/15 00:33:11;;;;;;;46.13;16.20;;;;;;;;;;5048707;28;20394;-70
2023/12/15 00:35:38;;;;;;;55.33;17.63;;;;;;;;;;5056722;28;20697;-70
2023/12/15 00:38:06;;;;;;;52.30;16.20;;;;;;;;;;5056508;28;20049;-70
2023/12/15 00:40:33;;;;;;;48.83;16.50;;;;;;;;;;5052940;28;20583;-70
2023/12/15 00:43:01;;;;;;;44.45;15.93;;;;;;;;;;5056541;28;20132;-70
2023/12/15 00:45:29;;;;;;;44.67;15.93;;;;;;;;;;5049754;28;20038;-69
2023/12/15 00:47:56;;;;;;;42.78;15.07;;;;;;;;;;5048597;28;20042;-69
2023/12/15 00:50:23;;;;;;;51.22;16.15;;;;;;;;;;5054689;28;20072;-69
2023/12/15 00:52:50;;;;;;;47.20;17.38;;;;;;;;;;5051416;28;20048;-70
2023/12/15 00:55:18;;;;;;;42.65;16.13;;;;;;;;;;5040701;28;20041;-69
2023/12/15 00:57:45;;;;;;;50.13;16.15;;;;;;;;;;5058609;28;20052;-70
2023/12/15 01:00:14;;;;;;;46.80;15.13;;;;;;;;;;5047328;28;20056;-69
2023/12/15 01:02:42;;;;;;;57.95;15.85;;;;;;;;;;5048797;28;20516;-70
2023/12/15 01:05:09;;;;;;;47.58;16.10;;;;;;;;;;5056928;28;20554;-70
2023/12/15 01:07:37;;;;;;;46.35;15.40;;;;;;;;;;5056877;28;20057;-70
2023/12/15 01:10:04;;;;;;;52.17;15.20;;;;;;;;;;5050522;28;20052;-70
2023/12/15 01:12:31;;;;;;;49.00;16.10;;;;;;;;;;5052192;28;20053;-70
2023/12/15 01:14:59;;;;;;;46.70;15.20;;;;;;;;;;5047773;28;20044;-70
2023/12/15 01:17:27;;;;;;;45.00;15.30;;;;;;;;;;5050907;28;20070;-70
2023/12/15 01:19:54;;;;;;;51.05;15.82;;;;;;;;;;5055759;28;20049;-69
2023/12/15 01:22:22;;;;;;;43.58;16.02;;;;;;;;;;5046813;28;20063;-70
2023/12/15 01:24:49;;;;;;;55.47;16.85;;;;;;;;;;5046585;28;20044;-69
2023/12/15 01:27:16;;;;;;;44.80;15.80;;;;;;;;;;5037559;28;20057;-69
2023/12/15 01:29:44;;;;;;;48.97;16.58;;;;;;;;;;5047440;28;20045;-70
2023/12/15 01:32:11;;;;;;;40.50;14.63;;;;;;;;;;5058703;28;20122;-69
2023/12/15 01:34:40;;;;;;;40.90;15.90;;;;;;;;;;5051305;28;20404;-70
2023/12/15 01:37:07;;;;;;;46.08;15.18;;;;;;;;;;5050852;28;20052;-70
2023/12/15 01:39:34;;;;;;;42.42;15.40;;;;;;;;;;5051574;28;20380;-70
2023/12/15 01:42:01;;;;;;;43.53;15.38;;;;;;;;;;5053672;28;20048;-69
2023/12/15 01:44:29;;;;;;;56.63;16.05;;;;;;;;;;5048925;28;20042;-70
2023/12/15 01:46:56;;;;;;;38.83;14.73;;;;;;;;;;5047392;28;20305;-69
2023/12/15 01:49:23;;;;;;;37.70;14.00;;;;;;;;;;5050101;28;20057;-70
2023/12/15 01:51:52;;;;;;;38.17;14.00;;;;;;;;;;5052590;28;20053;-70
2023/12/15 01:54:19;;;;;;;39.35;14.20;;;;;;;;;;5051146;28;20057;-70
2023/12/15 01:56:46;;;;;;;35.22;13.13;;;;;;;;;;5057696;28;20412;-70
2023/12/15 01:59:13;;;;;;;34.75;13.27;;;;;;;;;;5047456;28;20423;-70
2023/12/15 02:01:41;;;;;;;29.67;13.00;;;;;;;;;;5059385;28;20053;-70
2023/12/15 02:04:08;;;;;;;42.63;13.15;;;;;;;;;;5057452;28;20424;-69
2023/12/15 02:06:35;;;;;;;29.40;12.23;;;;;;;;;;5057487;28;20057;-69
2023/12/15 02:09:04;;;;;;;41.40;12.85;;;;;;;;;;5049060;28;20412;-69
2023/12/15 02:11:31;;;;;;;31.00;12.52;;;;;;;;;;5053475;28;20114;-70
2023/12/15 02:13:58;;;;;;;34.10;11.88;;;;;;;;;;5054924;28;20045;-70
2023/12/15 02:16:25;;;;;;;34.28;11.55;;;;;;;;;;5049428;28;20056;-70
2023/12/15 02:18:53;;;;;;;30.05;10.98;;;;;;;;;;5047938;28;20407;-70
2023/12/15 02:21:20;;;;;;;32.72;11.07;;;;;;;;;;5050391;28;20057;-70
2023/12/15 02:23:48;;;;;;;32.45;11.30;;;;;;;;;;5053468;28;20400;-69
2023/12/15 02:26:16;;;;;;;29.35;10.98;;;;;;;;;;5035291;28;20049;-69
2023/12/15 02:28:43;;;;;;;30.58;11.25;;;;;;;;;;5060757;28;20416;-70
2023/12/15 02:31:10;;;;;;;33.97;10.95;;;;;;;;;;5052546;28;20051;-70
2023/12/15 02:33:37;;;;;;;32.38;10.40;;;;;;;;;;5046561;28;20057;-70
2023/12/15 02:36:05;;;;;;;30.65;10.38;;;;;;;;;;5053271;28;20045;-69
2023/12/15 02:38:32;;;;;;;29.48;9.90;;;;;;;;;;5046722;28;20412;-70
2023/12/15 02:41:01;;;;;;;29.15;10.70;;;;;;;;;;5044355;28;20059;-69
2023/12/15 02:43:28;;;;;;;32.08;10.20;;;;;;;;;;5058267;28;20056;-69
2023/12/15 02:45:55;;;;;;;27.27;10.07;;;;;;;;;;5054443;28;20044;-70
2023/12/15 02:48:22;;;;;;;31.42;10.07;;;;;;;;;;5052661;28;20045;-70
2023/12/15 02:50:50;;;;;;;24.80;9.77;;;;;;;;;;5047448;28;20045;-69
2023/12/15 02:53:17;;;;;;;31.45;10.10;;;;;;;;;;5051830;28;20057;-70
2023/12/15 02:55:44;;;;;;;27.73;9.90;;;;;;;;;;5042568;28;20052;-69
2023/12/15 02:58:13;;;;;;;30.42;9.60;;;;;;;;;;5057113;28;20053;-69
2023/12/15 03:00:40;;;;;;;26.60;9.73;;;;;;;;;;5059710;28;20705;-69
2023/12/15 03:03:06;;;;;;;31.88;9.43;;;;;;;;;;5053982;28;20055;-70
2023/12/15 03:05:35;;;;;;;28.05;9.40;;;;;;;;;;5057616;28;20053;-70
2023/12/15 03:08:02;;;;;;;29.80;9.05;;;;;;;;;;5056960;28;21232;-70
2023/12/15 03:10:29;;;;;;;28.80;8.98;;;;;;;;;;5028522;28;20056;-70
2023/12/15 03:12:56;;;;;;;30.23;10.27;;;;;;;;;;5038741;28;20163;-69
2023/12/15 03:15:26;;;;;;;30.02;8.88;;;;;;;;;;5045388;28;20049;-70
2023/12/15 03:17:53;;;;;;;25.35;8.27;;;;;;;;;;5049569;28;20041;-69
2023/12/15 03:20:20;;;;;;;20.45;8.15;;;;;;;;;;5031237;28;20049;-70
2023/12/15 03:22:48;;;;;;;20.60;8.00;;;;;;;;;;5035457;28;20392;-69
2023/12/15 03:25:15;;;;;;;21.85;7.28;;;;;;;;;;5051480;28;20045;-70
2023/12/15 03:27:42;;;;;;;26.00;6.90;;;;;;;;;;5031771;28;20050;-70
2023/12/15 03:30:10;;;;;;;23.15;7.53;;;;;;;;;;5028981;28;20053;-69
2023/12/15 03:32:38;;;;;;;26.88;6.85;;;;;;;;;;5049777;28;20519;-70
2023/12/15 03:35:06;;;;;;;31.77;7.65;;;;;;;;;;5027206;28;20057;-69
2023/12/15 03:37:33;;;;;;;19.42;6.28;;;;;;;;;;5032940;28;20095;-70
2023/12/15 03:40:03;;;;;;;26.95;6.75;;;;;;;;;;5037983;28;20055;-70
2023/12/15 03:42:30;;;;;;;27.00;6.82;;;;;;;;;;5052241;28;20056;-69
2023/12/15 03:44:57;;;;;;;27.65;5.93;;;;;;;;;;5045637;28;20046;-69
2023/12/15 03:47:24;;;;;;;22.17;5.40;;;;;;;;;;5041493;28;20516;-70
2023/12/15 03:49:53;;;;;;;24.77;5.93;;;;;;;;;;5038515;28;20051;-69
2023/12/15 03:52:20;;;;;;;18.40;5.13;;;;;;;;;;5037259;28;20380;-70
2023/12/15 03:54:47;;;;;;;23.02;5.65;;;;;;;;;;5059388;28;20063;-70
2023/12/15 03:57:15;;;;;;;25.65;6.35;;;;;;;;;;5033209;28;20353;-70
2023/12/15 03:59:42;;;;;;;20.85;5.68;;;;;;;;;;5033125;28;20053;-69
2023/12/15 04:02:14;;;;;;;25.77;5.30;;;;;;;;;;5031630;28;20049;-69
2023/12/15 04:04:42;;;;;;;26.20;5.50;;;;;;;;;;5032342;28;20136;-69
2023/12/15 04:07:10;;;;;;;22.92;5.70;;;;;;;;;;5028612;28;20053;-70
2023/12/15 04:09:38;;;;;;;25.77;5.22;;;;;;;;;;5032514;28;20056;-69
2023/12/15 04:12:05;;;;;;;26.02;4.80;;;;;;;;;;5026617;28;20056;-70
2023/12/15 04:14:33;;;;;;;32.15;4.78;;;;;;;;;;5031689;28;20519;-70
2023/12/15 04:17:01;;;;;;;22.73;4.47;;;;;;;;;;5031327;28;20067;-70
2023/12/15 04:19:28;;;;;;;22.77;4.07;;;;;;;;;;5025475;28;20048;-69
2023/12/15 04:21:55;;;;;;;23.52;5.00;;;;;;;;;;5035404;28;20041;-69
2023/12/15 04:24:25;;;;;;;23.08;4.00;;;;;;;;;;5038894;28;20415;-70
2023/12/15 04:26:52;;;;;;;27.92;4.57;;;;;;;;;;5044505;28;20155;-70
2023/12/15 04:29:19;;;;;;;23.05;4.13;;;;;;;;;;5033710;28;20404;-70
2023/12/15 04:31:46;;;;;;;35.78;4.55;;;;;;;;;;5039205;28;20052;-70
2023/12/15 04:34:14;;;;;;;25.90;4.30;;;;;;;;;;5026744;28;20140;-69
2023/12/15 04:36:41;;;;;;;35.17;4.97;;;;;;;;;;5059164;28;20053;-69
2023/12/15 04:39:08;;;;;;;41.55;5.50;;;;;;;;;;5039664;28;20496;-70
2023/12/15 04:41:37;;;;;;;29.60;4.20;;;;;;;;;;5041782;28;20052;-69
2023/12/15 04:44:04;;;;;;;28.80;4.20;;;;;;;;;;5056508;28;20428;-69
2023/12/15 04:46:32;;;;;;;31.20;4.45;;;;;;;;;;5046083;28;20060;-69
2023/12/15 04:49:00;;;;;;;30.10;4.63;;;;;;;;;;5032276;28;20041;-69
2023/12/15 04:51:27;;;;;;;20.20;4.10;;;;;;;;;;5031439;28;20110;-70
2023/12/15 04:53:54;;;;;;;24.08;3.72;;;;;;;;;;5046334;28;20041;-70
2023/12/15 04:56:22;;;;;;;28.70;4.05;;;;;;;;;;5045571;28;20051;-70
2023/12/15 04:58:51;;;;;;;22.70;3.97;;;;;;;;;;5048940;28;20051;-70
2023/12/15 05:01:18;;;;;;;33.58;3.65;;;;;;;;;;5028910;28;20040;-70
2023/12/15 05:03:46;;;;;;;19.38;3.60;;;;;;;;;;5056754;28;20381;-70
2023/12/15 05:06:19;;;;;;;22.02;4.10;;;;;;;;;;5051857;28;20443;-70
2023/12/15 05:08:46;;;;;;;29.60;3.83;;;;;;;;;;5050349;28;20075;-70
2023/12/15 05:11:14;;;;;;;24.45;3.42;;;;;;;;;;5052002;28;20051;-69
2023/12/15 05:13:41;;;;;;;33.65;4.38;;;;;;;;;;5051113;28;20131;-69
2023/12/15 05:16:10;;;;;;;27.10;3.65;;;;;;;;;;5047957;28;20512;-70
2023/12/15 05:18:37;;;;;;;23.67;3.88;;;;;;;;;;5051446;28;20496;-70
2023/12/15 05:21:05;;;;;;;26.20;4.60;;;;;;;;;;5045813;28;20057;-69
2023/12/15 05:23:32;;;;;;;31.65;3.47;;;;;;;;;;5048213;28;20053;-70
2023/12/15 05:26:00;;;;;;;31.08;4.13;;;;;;;;;;5048742;28;20404;-69
2023/12/15 05:28:27;;;;;;;33.53;3.85;;;;;;;;;;5052527;28;20056;-70
2023/12/15 05:30:54;;;;;;;27.27;3.78;;;;;;;;;;5047729;28;20507;-70
2023/12/15 05:33:23;;;;;;;30.27;3.97;;;;;;;;;;5053229;28;20059;-69
2023/12/15 05:35:50;;;;;;;22.65;3.05;;;;;;;;;;5055911;28;20051;-70
2023/12/15 05:38:17;;;;;;;24.70;3.92;;;;;;;;;;5055816;28;20049;-70
2023/12/15 05:40:44;;;;;;;29.40;3.47;;;;;;;;;;5058780;28;20056;-70
2023/12/15 05:43:12;;;;;;;28.85;3.35;;;;;;;;;;5052697;28;20049;-69
2023/12/15 05:45:39;;;;;;;33.55;3.80;;;;;;;;;;5048107;28;20456;-69
2023/12/15 05:48:06;;;;;;;22.02;3.30;;;;;;;;;;5050423;28;20045;-70
2023/12/15 05:50:35;;;;;;;21.17;3.20;;;;;;;;;;5052782;28;20049;-70
2023/12/15 05:53:02;;;;;;;30.17;4.03;;;;;;;;;;5054351;28;20403;-69
2023/12/15 05:55:30;;;;;;;29.20;4.25;;;;;;;;;;5048287;28;20104;-69
2023/12/15 05:57:57;;;;;;;24.08;3.40;;;;;;;;;;5048470;28;20506;-69
2023/12/15 06:00:24;;;;;;;34.80;4.40;;;;;;;;;;5050383;28;20085;-69
2023/12/15 06:02:54;;;;;;;38.10;4.22;;;;;;;;;;5044990;28;20048;-70
2023/12/15 06:05:21;;;;;;;35.70;4.18;;;;;;;;;;5046416;28;20085;-71
2023/12/15 06:07:50;;;;;;;31.15;3.25;;;;;;;;;;5043961;28;20053;-70
2023/12/15 06:10:17;;;;;;;26.27;3.65;;;;;;;;;;5049327;28;20056;-71
2023/12/15 06:12:45;;;;;;;22.48;3.17;;;;;;;;;;5053607;28;20072;-70
2023/12/15 06:15:13;;;;;;;34.50;3.58;;;;;;;;;;5043173;28;20535;-70
2023/12/15 06:17:40;;;;;;;28.55;3.05;;;;;;;;;;5042187;28;20099;-70
2023/12/15 06:20:08;;;;;;;27.05;3.53;;;;;;;;;;5059693;28;20530;-71
2023/12/15 06:22:35;;;;;;;25.25;3.17;;;;;;;;;;5048801;28;20138;-71
2023/12/15 06:25:04;;;;;;;19.88;2.63;;;;;;;;;;5044207;28;20057;-70
2023/12/15 06:27:32;;;;;;;33.33;4.75;;;;;;;;;;5058918;28;20498;-71
2023/12/15 06:29:59;;;;;;;27.42;4.13;;;;;;;;;;5047405;28;20060;-70
2023/12/15 06:32:27;;;;;;;28.80;3.15;;;;;;;;;;5042424;28;20061;-71
2023/12/15 06:34:54;;;;;;;25.58;3.20;;;;;;;;;;5050557;28;20048;-70
2023/12/15 06:37:21;;;;;;;44.28;3.30;;;;;;;;;;5051300;28;20139;-70
2023/12/15 06:39:50;;;;;;;29.40;3.65;;;;;;;;;;5052492;28;20511;-70
2023/12/15 06:42:18;;;;;;;39.65;3.85;;;;;;;;;;5050008;28;20488;-70
2023/12/15 06:44:46;;;;;;;34.42;2.80;;;;;;;;;;5048496;28;20044;-70
2023/12/15 06:47:14;;;;;;;32.92;3.92;;;;;;;;;;5048526;28;20049;-70
2023/12/15 06:49:41;;;;;;;40.45;3.67;;;;;;;;;;5053104;28;20149;-70
2023/12/15 06:52:09;;;;;;;38.55;3.28;;;;;;;;;;5054455;28;20131;-70
2023/12/15 06:54:40;;;;;;;30.63;3.30;;;;;;;;;;5048033;28;20126;-70
2023/12/15 06:57:08;;;;;;;32.55;3.53;;;;;;;;;;5047010;28;20447;-70
2023/12/15 06:59:36;;;;;;;39.28;3.58;;;;;;;;;;5046887;28;20110;-70
2023/12/15 07:02:04;;;;;;;22.88;3.03;;;;;;;;;;5048715;28;20143;-70
2023/12/15 07:04:31;;;;;;;25.73;2.95;;;;;;;;;;5049521;28;20057;-70
2023/12/15 07:06:58;;;;;;;24.40;3.00;;;;;;;;;;5046792;28;20378;-70
2023/12/15 07:09:26;;;;;;;32.17;3.70;;;;;;;;;;5034916;28;20048;-70
2023/12/15 07:11:54;;;;;;;34.38;3.75;;;;;;;;;;5028588;28;20057;-70
2023/12/15 07:14:21;;;;;;;39.10;4.10;;;;;;;;;;5032891;28;20067;-70
2023/12/15 07:16:50;;;;;;;45.20;4.95;;;;;;;;;;5029081;28;20388;-70
2023/12/15 07:19:17;;;;;;;30.83;2.80;;;;;;;;;;5029306;28;20107;-70
2023/12/15 07:21:45;;;;;;;31.60;3.67;;;;;;;;;;5025216;28;20045;-70
2023/12/15 07:24:12;;;;;;;34.38;3.10;;;;;;;;;;5033229;28;20053;-70
2023/12/15 07:26:39;;;;;;;40.17;3.33;;;;;;;;;;5030432;28;20045;-70
2023/12/15 07:29:07;;;;;;;29.65;4.55;;;;;;;;;;5032970;28;20045;-70
2023/12/15 07:31:34;;;;;;;31.80;3.22;;;;;;;;;;5044308;28;20049;-70
2023/12/15 07:34:03;;;;;;;31.50;3.60;;;;;;;;;;5053069;28;20040;-70
2023/12/15 07:36:31;;;;;;;35.55;3.30;;;;;;;;;;5043951;28;20555;-70
2023/12/15 07:38:59;;;;;;;29.85;2.97;;;;;;;;;;5032975;28;20053;-70
2023/12/15 07:41:26;;;;;;;35.20;3.55;;;;;;;;;;5037064;28;20083;-70
2023/12/15 07:43:53;;;;;;;36.33;3.83;;;;;;;;;;5033230;28;20056;-70
2023/12/15 07:46:21;;;;;;;27.63;3.15;;;;;;;;;;5026769;28;20792;-70
2023/12/15 07:48:48;;;;;;;40.80;4.30;;;;;;;;;;5023430;28;20049;-70
2023/12/15 07:51:20;;;;;;;30.13;3.78;;;;;;;;;;5029428;28;20056;-70
2023/12/15 07:53:48;;;;;;;29.17;3.63;;;;;;;;;;5029284;28;20061;-70
2023/12/15 07:56:22;;;;;;;30.95;3.20;;;;;;;;;;5032910;28;20037;-71
2023/12/15 07:58:50;;;;;;;29.92;3.85;;;;;;;;;;5029198;28;20045;-70
2023/12/15 08:01:17;;;;;;;25.40;3.38;;;;;;;;;;5032438;28;20048;-70
2023/12/15 08:03:44;;;;;;;28.20;3.38;;;;;;;;;;5031886;28;20057;-71
2023/12/15 08:06:13;;;;;;;36.78;3.65;;;;;;;;;;5035328;28;20045;-71
2023/12/15 08:08:43;;;;;;;40.13;4.15;;;;;;;;;;5027588;28;20095;-71
2023/12/15 08:11:10;;;;;;;33.22;5.18;;;;;;;;;;5033365;28;20407;-70
2023/12/15 08:13:38;;;;;;;31.92;3.20;;;;;;;;;;5028902;28;20141;-70
2023/12/15 08:16:05;;;;;;;32.95;3.95;;;;;;;;;;5033141;28;20044;-70
2023/12/15 08:18:33;;;;;;;49.70;4.50;;;;;;;;;;5037220;28;20056;-71
2023/12/15 08:21:00;;;;;;;37.60;3.33;;;;;;;;;;5034291;28;20053;-71
2023/12/15 08:23:28;;;;;;;35.03;3.70;;;;;;;;;;5056372;28;20049;-70
2023/12/15 08:25:57;;;;;;;42.10;4.65;;;;;;;;;;5048174;28;20041;-70
2023/12/15 08:28:24;;;;;;;33.70;4.60;;;;;;;;;;5048074;28;20402;-71
2023/12/15 08:30:51;;;;;;;47.95;4.28;;;;;;;;;;5038820;28;20492;-71
2023/12/15 08:33:19;;;;;;;33.28;4.10;;;;;;;;;;5035833;28;20061;-71
2023/12/15 08:35:46;;;;;;;36.85;5.05;;;;;;;;;;5037087;28;20071;-70
2023/12/15 08:38:13;;;;;;;37.50;5.28;;;;;;;;;;5052497;28;20508;-70
2023/12/15 08:40:40;;;;;;;42.33;3.70;;;;;;;;;;5030215;28;20050;-70
2023/12/15 08:43:09;;;;;;;38.72;5.13;;;;;;;;;;5055876;28;20051;-71
2023/12/15 08:45:36;;;;;;;34.65;4.35;;;;;;;;;;5034733;28;20076;-70
2023/12/15 08:48:04;;;;;;;37.85;3.78;;;;;;;;;;5050154;28;20064;-70
2023/12/15 08:50:31;;;;;;;25.60;3.55;;;;;;;;;;5027408;28;20060;-71
2023/12/15 08:52:58;;;;;;;48.45;5.35;;;;;;;;;;5050499;28;20045;-70
2023/12/15 08:55:25;;;;;;;38.50;4.05;;;;;;;;;;5051874;28;20068;-70
2023/12/15 08:57:53;;;;;;;38.38;3.83;;;;;;;;;;5033871;28;20049;-70
2023/12/15 09:00:21;;;;;;;30.63;4.05;;;;;;;;;;5054070;28;20053;-70
2023/12/15 09:02:52;;;;;;;46.50;5.30;;;;;;;;;;5037524;28;20045;-70
2023/12/15 09:05:23;;;;;;;30.45;3.72;;;;;;;;;;5053083;28;20064;-70
2023/12/15 09:07:51;;;;;;;44.45;4.60;;;;;;;;;;5040252;28;20045;-71
2023/12/15 09:10:18;;;;;;;44.70;4.57;;;;;;;;;;5046964;28;20405;-70
2023/12/15 09:12:46;;;;;;;41.85;4.50;;;;;;;;;;5054348;28;20404;-70
2023/12/15 09:15:13;;;;;;;50.72;4.82;;;;;;;;;;5052800;28;20056;-71
2023/12/15 09:17:43;;;;;;;40.90;4.38;;;;;;;;;;5053787;28;20072;-71
2023/12/15 09:20:11;;;;;;;34.35;4.13;;;;;;;;;;5057157;28;20449;-71
2023/12/15 09:22:38;;;;;;;34.30;4.32;;;;;;;;;;5058324;28;20095;-70
2023/12/15 09:25:07;;;;;;;30.55;3.85;;;;;;;;;;5061516;28;20056;-70
2023/12/15 09:27:34;;;;;;;57.50;4.63;;;;;;;;;;5048180;28;20103;-71
2023/12/15 09:30:01;;;;;;;42.20;4.10;;;;;;;;;;5046769;28;20056;-71
2023/12/15 09:32:28;;;;;;;49.97;4.53;;;;;;;;;;5053121;28;20053;-70
2023/12/15 09:34:57;;;;;;;39.00;4.50;;;;;;;;;;5048770;28;20103;-70
2023/12/15 09:37:24;;;;;;;53.70;4.18;;;;;;;;;;5049394;28;20037;-70
2023/12/15 09:39:52;;;;;;;37.78;4.25;;;;;;;;;;5046887;28;20056;-71
2023/12/15 09:42:19;;;;;;;41.15;4.00;;;;;;;;;;5047042;28;20048;-70
2023/12/15 09:44:46;;;;;;;42.92;4.40;;;;;;;;;;5055027;28;20054;-71
2023/12/15 09:47:14;;;;;;;50.80;4.32;;;;;;;;;;5047846;28;20051;-71
2023/12/15 09:49:43;;;;;;;41.55;4.38;;;;;;;;;;5051564;28;20500;-70
2023/12/15 09:52:14;;;;;;;46.75;4.30;;;;;;;;;;5044785;28;20498;-70
2023/12/15 09:54:42;;;;;;;39.28;4.85;;;;;;;;;;5053697;28;20079;-71
2023/12/15 09:57:09;;;;;;;35.17;3.78;;;;;;;;;;5046639;28;20053;-71
2023/12/15 09:59:40;;;;;;;41.25;5.05;;;;;;;;;;5049250;28;20045;-70
2023/12/15 10:02:07;;;;;;;36.72;5.30;;;;;;;;;;5045588;28;20060;-70
2023/12/15 10:04:34;;;;;;;52.92;6.50;;;;;;;;;;5060674;28;20048;-70
2023/12/15 10:07:02;;;;;;;45.65;5.18;;;;;;;;;;5049592;28;20040;-71
2023/12/15 10:09:31;;;;;;;35.88;4.60;;;;;;;;;;5050970;28;20410;-70
2023/12/15 10:11:58;;;;;;;36.40;4.18;;;;;;;;;;5036898;28;20057;-70
2023/12/15 10:14:25;;;;;;;48.78;4.50;;;;;;;;;;5056639;28;20048;-71
2023/12/15 10:16:52;;;;;;;40.72;5.82;;;;;;;;;;5041327;28;20159;-70
2023/12/15 10:19:20;;;;;;;39.63;4.05;;;;;;;;;;5036965;28;20048;-70
2023/12/15 10:21:48;;;;;;;44.10;4.68;;;;;;;;;;5038536;28;20135;-70
2023/12/15 10:24:20;;;;;;;40.38;4.55;;;;;;;;;;5054227;28;20500;-70
2023/12/15 10:26:48;;;;;;;53.15;5.28;;;;;;;;;;5041275;28;20097;-70
2023/12/15 10:29:17;;;;;;;44.25;5.18;;;;;;;;;;5034463;28;20083;-70
2023/12/15 10:31:44;;;;;;;48.15;5.63;;;;;;;;;;5033927;28;20052;-71
2023/12/15 10:34:12;;;;;;;42.05;4.85;;;;;;;;;;5042255;28;20049;-70
2023/12/15 10:36:40;;;;;;;35.38;4.63;;;;;;;;;;5051586;28;20418;-70
2023/12/15 10:39:10;;;;;;;50.53;6.07;;;;;;;;;;5055928;28;20056;-70
2023/12/15 10:41:37;;;;;;;36.90;4.88;;;;;;;;;;5040955;28;20053;-70
2023/12/15 10:44:06;;;;;;;46.78;4.97;;;;;;;;;;5046553;28;20049;-70
2023/12/15 10:46:34;;;;;;;38.38;4.85;;;;;;;;;;5027425;28;20516;-70
2023/12/15 10:49:01;;;;;;;57.42;5.20;;;;;;;;;;5029618;28;20049;-70
2023/12/15 10:51:29;;;;;;;33.55;5.10;;;;;;;;;;5030541;28;20373;-70
2023/12/15 10:53:57;;;;;;;37.55;4.57;;;;;;;;;;5025120;28;20056;-71
2023/12/15 10:56:26;;;;;;;45.20;6.45;;;;;;;;;;5030887;28;20044;-70
2023/12/15 10:58:53;;;;;;;37.70;4.22;;;;;;;;;;5026918;28;20110;-70
2023/12/15 11:01:22;;;;;;;42.85;4.60;;;;;;;;;;5049804;28;20385;-70
2023/12/15 11:03:50;;;;;;;39.30;4.65;;;;;;;;;;5059383;28;20037;-70
2023/12/15 11:06:26;;;;;;;40.90;4.20;;;;;;;;;;5034765;28;20424;-70
2023/12/15 11:08:53;;;;;;;43.95;4.70;;;;;;;;;;5038681;28;20049;-70
2023/12/15 11:11:24;;;;;;;42.20;5.82;;;;;;;;;;5050673;28;20048;-70
2023/12/15 11:13:52;;;;;;;41.25;5.22;;;;;;;;;;5054365;28;20045;-70
2023/12/15 11:16:19;;;;;;;43.65;4.85;;;;;;;;;;5049211;28;20053;-70
2023/12/15 11:18:51;;;;;;;36.35;4.38;;;;;;;;;;5048318;28;20056;-70
2023/12/15 11:21:19;;;;;;;38.78;4.28;;;;;;;;;;5044722;28;20091;-70
2023/12/15 11:23:50;;;;;;;37.55;4.35;;;;;;;;;;5058014;28;20051;-70
2023/12/15 11:26:21;;;;;;;39.03;4.78;;;;;;;;;;5056058;28;20069;-70
2023/12/15 11:28:49;;;;;;;41.20;5.55;;;;;;;;;;5039946;28;20109;-70
2023/12/15 11:31:24;;;;;;;32.55;4.50;;;;;;;;;;5040706;28;20061;-70
2023/12/15 11:33:52;;;;;;;53.55;4.85;;;;;;;;;;5052279;28;20048;-70
2023/12/15 11:36:20;;;;;;;32.92;3.72;;;;;;;;;;5044378;28;20056;-70
2023/12/15 11:38:49;;;;;;;32.83;3.95;;;;;;;;;;5050126;28;20427;-70
2023/12/15 11:41:18;;;;;;;31.88;3.65;;;;;;;;;;5054217;28;20045;-70
2023/12/15 11:43:45;;;;;;;34.00;4.40;;;;;;;;;;5057448;28;20099;-70
2023/12/15 11:46:13;;;;;;;27.70;3.70;;;;;;;;;;5046274;28;20045;-70
2023/12/15 11:48:41;;;;;;;27.75;4.90;;;;;;;;;;5048877;28;20041;-70
2023/12/15 11:51:09;;;;;;;30.80;3.97;;;;;;;;;;5052710;28;20869;-70
2023/12/15 11:53:42;;;;;;;35.15;6.18;;;;;;;;;;5050732;28;20052;-70
2023/12/15 11:56:10;;;;;;;26.77;4.03;;;;;;;;;;5045221;28;20118;-70
2023/12/15 11:58:38;;;;;;;37.50;3.85;;;;;;;;;;5055160;28;20307;-70
2023/12/15 12:01:05;;;;;;;38.28;4.05;;;;;;;;;;5045913;28;20495;-70
2023/12/15 12:03:32;;;;;;;36.05;3.58;;;;;;;;;;5044544;28;20140;-70
2023/12/15 12:06:05;;;;;;;31.38;3.15;;;;;;;;;;5048007;28;20041;-70
2023/12/15 12:08:34;;;;;;;33.78;4.45;;;;;;;;;;5054263;28;20049;-70
2023/12/15 12:11:01;;;;;;;35.05;4.45;;;;;;;;;;5049276;28;20397;-70
2023/12/15 12:13:32;;;;;;;25.20;3.55;;;;;;;;;;5044641;28;20410;-70
2023/12/15 12:16:00;;;;;;;29.48;3.58;;;;;;;;;;5046605;28;20045;-70
2023/12/15 12:18:28;;;;;;;27.65;3.47;;;;;;;;;;5038128;28;20057;-70
2023/12/15 12:20:55;;;;;;;31.98;3.58;;;;;;;;;;5042493;28;20138;-70
2023/12/15 12:23:24;;;;;;;34.67;3.78;;;;;;;;;;5048648;28;20053;-70
2023/12/15 12:25:53;;;;;;;24.75;4.10;;;;;;;;;;5041508;28;20057;-71
2023/12/15 12:28:21;;;;;;;22.23;3.10;;;;;;;;;;5038570;28;20052;-70
2023/12/15 12:30:49;;;;;;;30.23;3.22;;;;;;;;;;5046889;28;20044;-70
2023/12/15 12:33:16;;;;;;;27.85;2.80;;;;;;;;;;5059184;28;20705;-70
2023/12/15 12:35:44;;;;;;;25.52;3.05;;;;;;;;;;5045553;28;20099;-70
2023/12/15 12:38:11;;;;;;;23.08;3.17;;;;;;;;;;5048402;28;20054;-70
2023/12/15 12:40:39;;;;;;;32.55;3.90;;;;;;;;;;5048653;28;20053;-70
2023/12/15 12:43:07;;;;;;;21.42;3.42;;;;;;;;;;5044476;28;20630;-70
2023/12/15 12:45:35;;;;;;;20.35;3.10;;;;;;;;;;5045810;28;20508;-70
2023/12/15 12:48:02;;;;;;;23.83;2.80;;;;;;;;;;5045394;28;20053;-70
2023/12/15 12:50:29;;;;;;;28.65;3.53;;;;;;;;;;5043021;28;20261;-70
2023/12/15 12:52:56;;;;;;;25.50;2.80;;;;;;;;;;5045897;28;20572;-70
2023/12/15 12:55:24;;;;;;;27.73;3.10;;;;;;;;;;5041466;28;20124;-70
2023/12/15 12:57:51;;;;;;;26.95;3.53;;;;;;;;;;5056714;28;20076;-70
2023/12/15 13:00:20;;;;;;;21.65;3.10;;;;;;;;;;5039409;28;20040;-70
2023/12/15 13:02:47;;;;;;;23.05;2.88;;;;;;;;;;5042067;28;20067;-70
2023/12/15 13:05:15;;;;;;;24.25;3.05;;;;;;;;;;5044277;28;20054;-70
2023/12/15 13:07:42;;;;;;;25.85;2.88;;;;;;;;;;5046641;28;20798;-70
2023/12/15 13:10:14;;;;;;;28.25;3.60;;;;;;;;;;5034166;28;20060;-70
2023/12/15 13:12:42;;;;;;;22.92;3.08;;;;;;;;;;5039812;28;20060;-70
2023/12/15 13:15:11;;;;;;;22.33;2.38;;;;;;;;;;5031250;28;20057;-70
2023/12/15 13:17:40;;;;;;;18.70;2.50;;;;;;;;;;5032607;28;20500;-71
2023/12/15 13:20:09;;;;;;;23.90;2.83;;;;;;;;;;5044669;28;20056;-70
2023/12/15 13:22:36;;;;;;;19.38;2.38;;;;;;;;;;5036498;28;20045;-70
2023/12/15 13:25:05;;;;;;;22.45;2.42;;;;;;;;;;5021379;28;20497;-69
2023/12/15 13:27:32;;;;;;;21.73;3.33;;;;;;;;;;5042855;28;20049;-70
2023/12/15 13:30:00;;;;;;;27.58;2.67;;;;;;;;;;5023242;28;20485;-70
2023/12/15 13:32:28;;;;;;;26.60;2.78;;;;;;;;;;5025628;28;20060;-70
2023/12/15 13:34:58;;;;;;;21.88;3.00;;;;;;;;;;5050423;28;20107;-70
2023/12/15 13:37:25;;;;;;;28.35;3.40;;;;;;;;;;5031994;28;20057;-70
2023/12/15 13:39:52;;;;;;;14.35;2.53;;;;;;;;;;5031252;28;20091;-69
2023/12/15 13:42:19;;;;;;;20.67;2.45;;;;;;;;;;5047027;28;20499;-70
2023/12/15 13:44:48;;;;;;;29.38;3.00;;;;;;;;;;5052619;28;20041;-70
2023/12/15 13:47:16;;;;;;;17.65;2.33;;;;;;;;;;5055566;28;20440;-70
2023/12/15 13:49:43;;;;;;;24.50;3.67;;;;;;;;;;5036627;28;20073;-70
2023/12/15 13:52:12;;;;;;;18.10;2.50;;;;;;;;;;5040358;28;20056;-69
2023/12/15 13:54:39;;;;;;;20.42;2.30;;;;;;;;;;5053546;28;20063;-70
2023/12/15 13:57:07;;;;;;;21.98;2.83;;;;;;;;;;5028709;28;20057;-69
2023/12/15 13:59:34;;;;;;;21.50;2.20;;;;;;;;;;5027847;28;20512;-70
2023/12/15 14:02:01;;;;;;;26.00;2.83;;;;;;;;;;5058981;28;20048;-70
2023/12/15 14:04:28;;;;;;;24.27;2.80;;;;;;;;;;5054916;28;20518;-70
2023/12/15 14:06:59;;;;;;;25.40;2.95;;;;;;;;;;5032755;28;20053;-70
2023/12/15 14:09:28;;;;;;;21.25;4.35;;;;;;;;;;5055285;28;20507;-69
2023/12/15 14:11:56;;;;;;;18.13;2.35;;;;;;;;;;5047169;28;20051;-70
2023/12/15 14:14:23;;;;;;;15.52;2.50;;;;;;;;;;5039007;28;20050;-70
2023/12/15 14:16:50;;;;;;;26.83;3.20;;;;;;;;;;5055663;28;20053;-69
2023/12/15 14:19:17;;;;;;;30.02;2.92;;;;;;;;;;5055786;28;20586;-69
2023/12/15 14:21:45;;;;;;;20.08;2.45;;;;;;;;;;5048505;28;20493;-70
2023/12/15 14:24:14;;;;;;;18.42;2.28;;;;;;;;;;5049299;28;20055;-70
2023/12/15 14:26:43;;;;;;;19.33;2.50;;;;;;;;;;5042418;28;20099;-70
2023/12/15 14:29:10;;;;;;;20.35;2.60;;;;;;;;;;5049483;28;20041;-70
2023/12/15 14:31:38;;;;;;;18.67;2.65;;;;;;;;;;5025098;28;20049;-69